Atkinson, NE (68713)

8:51 AM CDT on September 19, 2014 (GMT -0500)
The O'Neill Municipal-Baker | Change Station
CLOSE
Current Station
Airport
Location: O'Neill,
Elevation: 2031 ft
Nearby Weather Stations

Elev 2031 ft 42.47 °N, 98.69 °W | Updated 16 minutes ago

Clear
Clear
66 °F
Feels Like 66 °F
N
12
Wind Variable Wind from SSW

Today
High -- | Low -- °F
--% Chance of Precip.
Yesterday
High -- | Low -- °F
Precip. -- in
7:20 AM 7:38 PM
Waning Crescent, 19% visible
Pressure 29.81 in
Visibility 10.0 miles
Clouds Clear
Dew Point 64 °F
Humidity 94%
Rainfall 0.00 in
Snow Depth Not available.
UV 1 out of 12
Pollen 6.70 out of 12
Air Quality Not available.
Flu Activity Not available.
METAR KONL 191335Z AUTO 20010KT 10SM CLR 19/18 A2981

More Conditions Fewer Conditions

Pressure 29.81 in
Visibility 10.0 miles
Clouds Clear
Dew Point 64 °F
Humidity 94%
Rainfall 0.00 in
Snow Depth Not available.
UV 1 out of 12
Pollen 6.70 out of 12
Air Quality Not available.
Flu Activity Not available.
METAR KONL 191335Z AUTO 20010KT 10SM CLR 19/18 A2981

More Conditions Fewer Conditions

10-Day Weather Forecast

Almanac

Astronomy

Sep. 19, 2014 Rise Set
Actual Time 7:20 AM CDT 7:38 PM CDT
Civil Twilight 6:51 AM CDT 8:06 PM CDT
Nautical Twilight 6:18 AM CDT 8:39 PM CDT
Astronomical Twilight 5:44 AM CDT 9:13 PM CDT
Moon 3:02 AM CDT 5:11 PM CDT
Length of Visible Light 13h 14m
Length of Day
12h 18m
Tomorrow will be 2m 50s shorter.
Waning Crescent, 19% of the Moon is Illuminated
Today
Waning Crescent
Sep 24
New
Oct 1
First Quarter
Oct 8
Full
Oct 15
Last Quarter

Today's Extremes

State Highs State Lows

Community

WunderPhotos

Upload Photos

1,754,608 photos uploaded!

WunderBlogs® & News

Nearby

Snow Depth

Station Depth Elevation
No new snow has been reported.

Earthquake Activity

City Distance Mag. Time & Date
No recent earthquake activity has been reported nearby.
Minimum magnitude displayed is 2.5.

Coastal Water Temperatures

Place Temperature
No Stations Reporting

Nearby Weather Stations